createdAt,value
2023-01-12T00:01:41.598Z,100272.56
2023-01-12T00:04:15.019Z,100263.88
2023-01-12T00:06:48.371Z,100279.06
2023-01-12T00:09:18.996Z,100270.81
2023-01-12T00:11:49.729Z,100280.97
2023-01-12T00:14:20.226Z,100279.06
2023-01-12T00:16:50.722Z,100274.34
2023-01-12T00:19:22.202Z,100281.13
2023-01-12T00:21:59.533Z,100266.06
2023-01-12T00:24:31.960Z,100272.13
2023-01-12T00:27:04.226Z,100268.72
2023-01-12T00:29:35.127Z,100247.78
2023-01-12T00:32:07.438Z,100255.47
2023-01-12T00:34:37.826Z,100246.47
2023-01-12T00:37:10.946Z,100254.00
2023-01-12T00:42:38.722Z,100260.75
2023-01-12T00:45:24.858Z,100263.41
2023-01-12T00:47:56.267Z,100270.22
2023-01-12T00:50:26.661Z,100222.72
2023-01-12T00:53:01.566Z,100265.78
2023-01-12T00:55:33.524Z,100256.59
2023-01-12T00:58:04.136Z,100252.47
2023-01-12T01:00:34.578Z,100255.13
2023-01-12T01:03:05.089Z,100262.97
2023-01-12T01:05:35.521Z,100258.09
2023-01-12T01:08:09.709Z,100252.31
2023-01-12T01:10:40.452Z,100259.13
2023-01-12T01:13:12.599Z,100244.50
2023-01-12T01:15:45.728Z,100252.78
2023-01-12T01:18:16.459Z,100235.38
2023-01-12T01:20:49.669Z,100244.69
2023-01-12T01:23:24.399Z,100229.31
2023-01-12T01:25:55.147Z,100243.31
2023-01-12T01:28:25.773Z,100248.63
2023-01-12T01:30:56.636Z,100237.56
2023-01-12T01:33:30.665Z,100245.22
2023-01-12T01:36:02.071Z,100242.41
2023-01-12T01:38:35.242Z,100217.94
2023-01-12T01:46:53.364Z,100238.25
2023-01-12T01:49:31.721Z,100240.16
2023-01-12T01:52:06.423Z,100227.75
2023-01-12T01:54:42.962Z,100237.16
2023-01-12T01:57:19.915Z,100245.00
2023-01-12T01:59:57.360Z,100245.13
2023-01-12T02:02:29.375Z,100250.28
2023-01-12T02:05:00.829Z,100221.06
2023-01-12T02:07:31.457Z,100219.44
2023-01-12T02:10:04.598Z,100225.19
2023-01-12T02:12:48.046Z,100217.66
2023-01-12T02:15:31.003Z,100216.63
2023-01-12T02:18:12.191Z,100231.84
2023-01-12T02:20:53.190Z,100221.78
2023-01-12T02:23:57.083Z,100220.94
2023-01-12T02:27:05.291Z,100234.84
2023-01-12T02:30:09.626Z,100226.88
2023-01-12T02:32:51.537Z,100234.97
2023-01-12T02:35:31.586Z,100202.00
2023-01-12T02:38:12.185Z,100225.88
2023-01-12T02:40:56.045Z,100183.88
2023-01-12T02:43:29.172Z,100219.34
2023-01-12T02:46:23.078Z,100201.06
2023-01-12T02:49:01.295Z,100203.44
2023-01-12T02:51:42.281Z,100206.06
2023-01-12T02:54:15.389Z,100199.28
2023-01-12T02:56:48.717Z,100198.69
2023-01-12T02:59:23.981Z,100209.75
2023-01-12T03:02:06.021Z,100204.00
2023-01-12T03:04:40.273Z,100189.97
2023-01-12T03:07:41.520Z,100153.72
2023-01-12T03:10:46.575Z,100183.44
2023-01-12T03:13:19.286Z,100185.94
2023-01-12T03:15:55.243Z,100190.97
2023-01-12T03:18:34.059Z,100183.94
2023-01-12T03:21:12.731Z,100185.41
2023-01-12T03:23:48.133Z,100192.63
2023-01-12T03:26:27.879Z,100190.75
2023-01-12T03:29:05.129Z,100176.28
2023-01-12T03:31:36.147Z,100182.78
2023-01-12T03:34:07.598Z,100176.59
2023-01-12T03:36:48.337Z,100177.31
2023-01-12T03:39:25.959Z,100183.22
2023-01-12T03:42:04.235Z,100150.63
2023-01-12T03:44:45.812Z,100165.16
2023-01-12T03:47:21.441Z,100170.19
2023-01-12T03:49:57.702Z,100159.56
2023-01-12T03:52:35.222Z,100162.06
2023-01-12T03:55:10.039Z,100160.31
2023-01-12T03:57:42.530Z,100153.50
2023-01-12T04:00:16.235Z,100158.66
2023-01-12T04:02:47.537Z,100150.28
2023-01-12T04:05:18.741Z,100134.66
2023-01-12T04:07:51.708Z,100140.97
2023-01-12T04:10:28.365Z,100146.44
2023-01-12T04:12:59.222Z,100135.13
2023-01-12T04:15:29.620Z,100148.09
2023-01-12T04:18:00.225Z,100138.25
2023-01-12T04:20:30.600Z,100135.63
2023-01-12T04:23:01.186Z,100136.94
2023-01-12T04:25:31.697Z,100133.38
2023-01-12T04:28:03.802Z,100127.38
2023-01-12T04:30:36.441Z,100122.06
2023-01-12T04:33:11.325Z,100127.84
2023-01-12T04:35:42.723Z,100126.34
2023-01-12T04:38:16.852Z,100118.66
2023-01-12T04:40:47.123Z,100122.66
2023-01-12T04:43:17.600Z,100113.50
2023-01-12T04:45:48.070Z,100106.13
2023-01-12T04:48:19.581Z,100107.78
2023-01-12T04:50:56.372Z,100102.59
2023-01-12T04:53:44.344Z,100098.75
2023-01-12T04:56:14.702Z,100102.88
2023-01-12T04:58:45.273Z,100093.00
2023-01-12T05:01:17.481Z,100093.88
2023-01-12T05:03:48.536Z,100094.00
2023-01-12T05:06:18.992Z,100084.75
2023-01-12T05:09:04.781Z,100080.00
2023-01-12T05:11:35.396Z,100073.50
2023-01-12T05:14:06.109Z,100073.38
2023-01-12T05:16:36.804Z,100066.44
2023-01-12T05:19:07.519Z,100063.09
2023-01-12T05:21:37.959Z,100054.66
2023-01-12T05:24:11.524Z,100051.25
2023-01-12T05:26:41.971Z,100048.63
2023-01-12T05:29:14.486Z,100037.69
2023-01-12T05:31:47.621Z,100039.34
2023-01-12T05:34:20.665Z,100025.91
2023-01-12T05:36:56.291Z,100025.16
2023-01-12T05:39:30.282Z,100026.19
2023-01-12T05:42:14.146Z,100015.69
2023-01-12T05:44:44.607Z,100016.00
2023-01-12T05:47:24.281Z,100014.34
2023-01-12T05:49:54.668Z,100000.44
2023-01-12T05:52:25.178Z,100010.78
2023-01-12T05:54:58.260Z,100005.19
2023-01-12T05:57:32.071Z,99989.97
2023-01-12T06:00:02.739Z,99997.78
2023-01-12T06:02:42.922Z,99962.00
2023-01-12T06:05:13.499Z,99996.28
2023-01-12T06:07:45.916Z,99993.78
2023-01-12T06:10:20.507Z,99983.00
2023-01-12T06:13:22.329Z,99974.75
2023-01-12T06:15:53.740Z,99968.69
2023-01-12T06:18:24.212Z,99963.81
2023-01-12T06:20:54.944Z,99960.53
2023-01-12T06:23:34.878Z,99954.78
2023-01-12T06:26:11.080Z,99959.22
2023-01-12T06:28:43.041Z,99948.41
2023-01-12T06:31:15.659Z,99946.94
2023-01-12T06:33:47.750Z,99951.94
2023-01-12T06:36:18.203Z,99954.00
2023-01-12T06:38:48.580Z,99952.50
2023-01-12T06:41:34.559Z,99942.47
2023-01-12T06:44:05.083Z,99943.31
2023-01-12T06:46:35.635Z,99947.00
2023-01-12T06:49:06.246Z,99942.72
2023-01-12T06:51:36.779Z,99943.47
2023-01-12T06:54:07.339Z,99931.78
2023-01-12T06:56:40.683Z,99927.53
2023-01-12T06:59:12.816Z,99919.13
2023-01-12T07:01:43.647Z,99915.72
2023-01-12T07:04:14.214Z,99915.88
2023-01-12T07:06:48.291Z,99881.38
2023-01-12T07:09:18.819Z,99913.50
2023-01-12T07:11:54.125Z,99919.41
2023-01-12T07:14:24.657Z,99903.34
2023-01-12T07:16:55.260Z,99907.47
2023-01-12T07:19:26.131Z,99875.59
2023-01-12T07:22:00.811Z,99900.53
2023-01-12T07:24:31.451Z,99897.19
2023-01-12T07:27:04.798Z,99882.72
2023-01-12T07:29:36.030Z,99895.72
2023-01-12T07:32:06.890Z,99883.78
2023-01-12T07:34:38.748Z,99883.78
2023-01-12T07:37:09.641Z,99867.72
2023-01-12T07:39:40.968Z,99852.53
2023-01-12T07:42:33.565Z,99856.53
2023-01-12T07:45:06.100Z,99847.75
2023-01-12T07:47:44.348Z,99836.94
2023-01-12T07:50:22.335Z,99840.22
2023-01-12T07:52:52.921Z,99841.72
2023-01-12T07:55:23.877Z,99829.78
2023-01-12T07:58:03.070Z,99829.50
2023-01-12T08:00:34.123Z,99819.06
2023-01-12T08:03:10.003Z,99834.00
2023-01-12T08:05:41.651Z,99834.75
2023-01-12T08:08:12.567Z,99823.81
2023-01-12T08:10:50.119Z,99807.88
2023-01-12T08:13:25.692Z,99817.03
2023-01-12T08:15:57.400Z,99820.84
2023-01-12T08:18:36.681Z,99807.53
2023-01-12T08:21:11.488Z,99802.53
2023-01-12T08:23:52.941Z,99791.91
2023-01-12T08:26:27.876Z,99811.34
2023-01-12T08:29:06.169Z,99807.31
2023-01-12T08:31:36.840Z,99797.81
2023-01-12T08:34:09.220Z,99786.28
2023-01-12T08:36:54.319Z,99778.88
2023-01-12T08:39:29.492Z,99793.94
2023-01-12T08:42:02.256Z,99787.25
2023-01-12T08:44:36.331Z,99794.78
2023-01-12T08:47:08.489Z,99768.19
2023-01-12T08:49:39.054Z,99787.66
2023-01-12T08:52:09.476Z,99790.94
2023-01-12T08:54:39.985Z,99782.91
2023-01-12T08:57:10.444Z,99786.44
2023-01-12T08:59:43.611Z,99799.38
2023-01-12T09:02:15.647Z,99785.41
2023-01-12T09:04:47.966Z,99801.16
2023-01-12T09:07:25.708Z,99792.88
2023-01-12T09:09:56.979Z,99793.41
2023-01-12T09:12:28.525Z,99782.00
2023-01-12T09:15:05.511Z,99772.38
2023-01-12T09:17:36.098Z,99782.41
2023-01-12T09:20:07.688Z,99792.44
2023-01-12T09:22:41.267Z,99774.72
2023-01-12T09:25:12.512Z,99775.00
2023-01-12T09:27:43.913Z,99792.09
2023-01-12T09:30:18.034Z,99794.97
2023-01-12T09:32:51.066Z,99804.53
2023-01-12T09:35:22.156Z,99809.06
2023-01-12T09:37:52.662Z,99799.28
2023-01-12T09:40:23.562Z,99801.31
2023-01-12T09:43:07.495Z,99784.69
2023-01-12T09:45:53.267Z,99813.13
2023-01-12T09:48:25.352Z,99816.53
2023-01-12T09:51:02.470Z,99806.59
2023-01-12T09:53:49.485Z,99816.00
2023-01-12T09:56:32.797Z,99805.84
2023-01-12T09:59:32.586Z,99822.69
2023-01-12T10:02:07.174Z,99821.91
2023-01-12T10:04:39.926Z,99812.78
2023-01-12T10:07:16.825Z,99819.16
2023-01-12T10:09:47.989Z,99810.88
2023-01-12T10:12:42.117Z,99810.34
2023-01-12T10:15:32.501Z,99816.13
2023-01-12T10:18:11.188Z,99808.47
2023-01-12T10:20:43.454Z,99787.94
2023-01-12T10:23:19.375Z,99810.84
2023-01-12T10:26:00.249Z,99811.72
2023-01-12T10:28:33.649Z,99806.81
2023-01-12T10:31:21.381Z,99812.00
2023-01-12T10:34:12.014Z,99808.84
2023-01-12T10:36:47.237Z,99820.91
2023-01-12T10:39:42.870Z,99812.16
2023-01-12T10:42:35.081Z,99771.53
2023-01-12T10:45:21.826Z,99804.63
2023-01-12T10:47:54.293Z,99804.41
2023-01-12T10:50:31.388Z,99810.09
2023-01-12T10:53:06.064Z,99809.06
2023-01-12T10:55:41.093Z,99805.69
2023-01-12T10:58:23.601Z,99801.47
2023-01-12T11:00:57.186Z,99789.66
2023-01-12T11:03:33.259Z,99807.88
2023-01-12T11:06:26.523Z,99805.53
2023-01-12T11:09:01.950Z,99806.03
2023-01-12T11:11:34.767Z,99801.47
2023-01-12T11:14:09.050Z,99807.66
2023-01-12T11:16:59.921Z,99796.34
2023-01-12T11:19:37.701Z,99785.66
2023-01-12T11:22:17.798Z,99803.25
2023-01-12T11:24:53.120Z,99783.13
2023-01-12T11:27:27.881Z,99790.91
2023-01-12T11:30:02.706Z,99806.00
2023-01-12T11:32:40.952Z,99800.34
2023-01-12T11:35:32.577Z,99791.16
2023-01-12T11:38:13.249Z,99799.47
2023-01-12T11:40:50.934Z,99797.06
2023-01-12T11:43:45.411Z,99766.16
2023-01-12T11:46:26.858Z,99786.38
2023-01-12T11:49:09.796Z,99800.69
2023-01-12T11:51:40.731Z,99798.44
2023-01-12T11:54:17.986Z,99796.06
2023-01-12T11:57:15.232Z,99788.88
2023-01-12T12:00:05.797Z,99794.38
2023-01-12T12:02:44.718Z,99786.97
2023-01-12T12:05:32.865Z,99785.47
2023-01-12T12:08:28.842Z,99786.81
2023-01-12T12:11:08.431Z,99772.72
2023-01-12T12:13:45.306Z,99769.19
2023-01-12T12:16:24.332Z,99777.06
2023-01-12T12:19:09.248Z,99783.25
2023-01-12T12:21:50.299Z,99777.69
2023-01-12T12:24:58.458Z,99778.81
2023-01-12T12:27:58.016Z,99755.50
2023-01-12T12:31:07.520Z,99776.75
2023-01-12T12:34:26.337Z,99793.00
2023-01-12T12:37:05.594Z,99780.53
2023-01-12T12:39:53.619Z,99785.38
2023-01-12T12:42:56.412Z,99781.25
2023-01-12T12:45:41.691Z,99775.31
2023-01-12T12:48:18.056Z,99773.56
2023-01-12T12:50:55.652Z,99766.53
2023-01-12T12:53:32.976Z,99779.13
2023-01-12T12:56:06.852Z,99779.13
2023-01-12T12:58:55.621Z,99782.00
2023-01-12T13:02:09.176Z,99770.38
2023-01-12T13:05:12.901Z,99767.50
2023-01-12T13:07:57.350Z,99763.97
2023-01-12T13:10:47.072Z,99774.28
2023-01-12T13:13:41.019Z,99773.91
2023-01-12T13:16:51.703Z,99777.72
2023-01-12T13:19:40.417Z,99774.47
2023-01-12T13:22:45.424Z,99766.91
2023-01-12T13:25:45.739Z,99767.00
2023-01-12T13:28:22.471Z,99772.38
2023-01-12T13:30:55.807Z,99770.75
2023-01-12T13:33:35.802Z,99762.47
2023-01-12T13:36:12.535Z,99763.19
2023-01-12T13:38:58.410Z,99765.59
2023-01-12T13:41:45.746Z,99776.69
2023-01-12T13:44:24.511Z,99759.50
2023-01-12T13:47:02.518Z,99775.56
2023-01-12T13:49:34.907Z,99792.41
2023-01-12T13:52:09.750Z,99779.09
2023-01-12T13:54:52.190Z,99757.28
2023-01-12T13:57:24.883Z,99754.66
2023-01-12T14:00:00.370Z,99787.50
2023-01-12T14:02:37.469Z,99762.78
2023-01-12T14:05:27.055Z,99791.69
2023-01-12T14:08:08.928Z,99793.81
2023-01-12T14:10:50.854Z,99786.78
2023-01-12T14:13:48.681Z,99787.31
2023-01-12T14:16:33.047Z,99792.88
2023-01-12T14:19:03.810Z,99787.97
2023-01-12T14:21:37.947Z,99794.75
2023-01-12T14:24:17.421Z,99800.91
2023-01-12T14:26:51.218Z,99811.09
2023-01-12T14:29:22.380Z,99800.16
2023-01-12T14:31:55.549Z,99789.50
2023-01-12T14:34:32.598Z,99798.50
2023-01-12T14:37:04.127Z,99803.41
2023-01-12T14:39:41.368Z,99804.41
2023-01-12T14:42:35.078Z,99811.34
2023-01-12T14:45:29.289Z,99808.81
2023-01-12T14:48:22.295Z,99753.38
2023-01-12T14:51:17.102Z,99796.88
2023-01-12T14:53:52.674Z,99805.31
2023-01-12T14:56:26.843Z,99788.81
2023-01-12T14:59:08.016Z,99801.78
2023-01-12T15:01:41.061Z,99803.31
2023-01-12T15:04:22.154Z,99788.94
2023-01-12T15:07:04.057Z,99799.00
2023-01-12T15:09:37.205Z,99791.47
2023-01-12T15:12:37.729Z,99790.59
2023-01-12T15:15:21.701Z,99789.81
2023-01-12T15:18:06.054Z,99795.88
2023-01-12T15:20:51.546Z,99787.72
2023-01-12T15:23:38.087Z,99796.75
2023-01-12T15:26:08.546Z,99777.16
2023-01-12T15:28:40.311Z,99781.69
2023-01-12T15:31:22.356Z,99793.47
2023-01-12T15:33:52.904Z,99795.97
2023-01-12T15:36:24.827Z,99796.97
2023-01-12T15:38:56.003Z,99799.50
2023-01-12T15:41:41.624Z,99796.97
2023-01-12T15:44:18.762Z,99792.72
2023-01-12T15:46:54.046Z,99783.78
2023-01-12T15:49:24.575Z,99798.22
2023-01-12T15:51:55.189Z,99796.56
2023-01-12T15:54:26.055Z,99791.78
2023-01-12T15:56:57.989Z,99798.47
2023-01-12T15:59:30.588Z,99755.97
2023-01-12T16:02:04.263Z,99796.72
2023-01-12T16:04:43.790Z,99796.56
2023-01-12T16:07:15.856Z,99783.88
2023-01-12T16:09:47.928Z,99797.22
2023-01-12T16:12:21.494Z,99790.19
2023-01-12T16:14:54.242Z,99794.47
2023-01-12T16:17:27.699Z,99796.13
2023-01-12T16:19:58.310Z,99793.47
2023-01-12T16:22:33.522Z,99785.91
2023-01-12T16:25:04.083Z,99793.59
2023-01-12T16:27:36.388Z,99790.09
2023-01-12T16:30:08.720Z,99782.69
2023-01-12T16:32:48.530Z,99790.19
2023-01-12T16:35:21.079Z,99791.72
2023-01-12T16:37:56.366Z,99762.56
2023-01-12T16:40:30.227Z,99780.94
2023-01-12T16:43:00.660Z,99793.53
2023-01-12T16:45:31.110Z,99782.56
2023-01-12T16:48:04.212Z,99785.72
2023-01-12T16:50:34.691Z,99780.69
2023-01-12T16:53:06.051Z,99781.44
2023-01-12T16:55:38.111Z,99786.50
2023-01-12T16:58:09.340Z,99761.34
2023-01-12T17:00:40.115Z,99784.84
2023-01-12T17:03:14.886Z,99776.41
2023-01-12T17:05:45.066Z,99772.13
2023-01-12T17:08:16.063Z,99769.59
2023-01-12T17:10:48.608Z,99761.31
2023-01-12T17:13:19.049Z,99757.91
2023-01-12T17:15:51.152Z,99767.34
2023-01-12T17:18:27.339Z,99766.34
2023-01-12T17:21:09.365Z,99763.94
2023-01-12T17:23:41.772Z,99754.66
2023-01-12T17:26:17.637Z,99757.78
2023-01-12T17:28:57.719Z,99764.56
2023-01-12T17:31:28.520Z,99751.75
2023-01-12T17:34:01.650Z,99759.19
2023-01-12T17:36:32.874Z,99751.50
2023-01-12T17:39:06.332Z,99754.78
2023-01-12T17:41:49.656Z,99753.69
2023-01-12T17:44:20.544Z,99742.72
2023-01-12T17:46:51.546Z,99751.91
2023-01-12T17:49:27.183Z,99746.75
2023-01-12T17:51:57.711Z,99732.06
2023-01-12T17:54:28.337Z,99736.34
2023-01-12T17:57:01.598Z,99748.56
2023-01-12T17:59:32.122Z,99756.84
2023-01-12T18:02:04.216Z,99747.44
2023-01-12T18:04:37.389Z,99736.00
2023-01-12T18:07:08.168Z,99742.31
2023-01-12T18:09:39.580Z,99737.88
2023-01-12T18:12:12.551Z,99730.84
2023-01-12T18:14:43.193Z,99729.63
2023-01-12T18:17:14.204Z,99730.25
2023-01-12T18:19:47.394Z,99741.84
2023-01-12T18:22:17.948Z,99741.59
2023-01-12T18:24:48.500Z,99737.31
2023-01-12T18:27:23.569Z,99729.75
2023-01-12T18:29:54.500Z,99738.19
2023-01-12T18:32:24.981Z,99729.75
2023-01-12T18:34:59.570Z,99743.34
2023-01-12T18:37:30.003Z,99729.88
2023-01-12T18:40:00.505Z,99729.88
2023-01-12T18:42:43.701Z,99721.47
2023-01-12T18:45:14.149Z,99716.19
2023-01-12T18:47:57.135Z,99732.66
2023-01-12T18:50:46.814Z,99723.72
2023-01-12T18:53:33.823Z,99730.38
2023-01-12T18:56:06.644Z,99723.72
2023-01-12T18:58:39.285Z,99693.59
2023-01-12T19:01:10.234Z,99716.91
2023-01-12T19:03:41.430Z,99719.31
2023-01-12T19:06:23.419Z,99714.28
2023-01-12T19:09:08.041Z,99712.53
2023-01-12T19:11:39.308Z,99716.91
2023-01-12T19:14:22.480Z,99709.91
2023-01-12T19:17:05.898Z,99712.66
2023-01-12T19:19:37.195Z,99713.41
2023-01-12T19:22:22.744Z,99716.16
2023-01-12T19:25:05.698Z,99711.03
2023-01-12T19:27:48.579Z,99713.41
2023-01-12T19:30:19.017Z,99700.69
2023-01-12T19:32:49.540Z,99711.66
2023-01-12T19:35:27.534Z,99710.75
2023-01-12T19:38:00.592Z,99715.38
2023-01-12T19:40:34.782Z,99705.31
2023-01-12T19:43:14.439Z,99711.25
2023-01-12T19:45:46.279Z,99705.31
2023-01-12T19:48:19.551Z,99707.84
2023-01-12T19:50:50.490Z,99698.19
2023-01-12T19:53:26.002Z,99701.97
2023-01-12T19:55:56.619Z,99702.06
2023-01-12T19:58:28.238Z,99701.19
2023-01-12T20:01:00.792Z,99697.94
2023-01-12T20:03:39.880Z,99694.41
2023-01-12T20:06:11.487Z,99658.91
2023-01-12T20:08:44.702Z,99690.41
2023-01-12T20:11:16.244Z,99696.78
2023-01-12T20:13:47.019Z,99664.69
2023-01-12T20:16:18.396Z,99697.56
2023-01-12T20:18:49.086Z,99700.97
2023-01-12T20:21:21.836Z,99661.53
2023-01-12T20:23:55.152Z,99683.56
2023-01-12T20:26:25.673Z,99693.53
2023-01-12T20:29:06.421Z,99702.97
2023-01-12T20:31:38.775Z,99696.03
2023-01-12T20:34:10.459Z,99700.97
2023-01-12T20:36:46.528Z,99688.63
2023-01-12T20:39:24.153Z,99706.00
2023-01-12T20:41:58.461Z,99707.72
2023-01-12T20:44:31.449Z,99705.22
2023-01-12T20:47:03.752Z,99715.38
2023-01-12T20:49:36.250Z,99714.66
2023-01-12T20:52:18.267Z,99718.78
2023-01-12T20:54:53.808Z,99718.06
2023-01-12T20:57:24.710Z,99718.91
2023-01-12T20:59:55.588Z,99726.59
2023-01-12T21:02:28.222Z,99734.25
2023-01-12T21:05:06.733Z,99708.63
2023-01-12T21:07:37.487Z,99722.41
2023-01-12T21:10:14.188Z,99724.81
2023-01-12T21:12:46.473Z,99718.78
2023-01-12T21:15:18.270Z,99734.16
2023-01-12T21:17:48.794Z,99734.25
2023-01-12T21:20:20.049Z,99725.81
2023-01-12T21:22:50.683Z,99731.75
2023-01-12T21:25:27.984Z,99726.97
2023-01-12T21:27:59.392Z,99722.94
2023-01-12T21:30:30.042Z,99720.56
2023-01-12T21:33:00.824Z,99718.69
2023-01-12T21:35:31.498Z,99720.19
2023-01-12T21:38:02.993Z,99716.16
2023-01-12T21:40:36.214Z,99726.22
2023-01-12T21:43:15.832Z,99717.78
2023-01-12T21:45:48.419Z,99706.63
2023-01-12T21:48:20.805Z,99694.66
2023-01-12T21:50:51.431Z,99699.19
2023-01-12T21:53:26.299Z,99698.94
2023-01-12T21:56:01.260Z,99692.16
2023-01-12T21:58:33.711Z,99685.59
2023-01-12T22:01:10.531Z,99696.78
2023-01-12T22:03:50.495Z,99693.53
2023-01-12T22:06:20.928Z,99682.69
2023-01-12T22:08:51.466Z,99693.75
2023-01-12T22:11:24.531Z,99693.75
2023-01-12T22:13:54.985Z,99696.41
2023-01-12T22:16:25.638Z,99658.00
2023-01-12T22:18:56.187Z,99693.91
2023-01-12T22:21:26.853Z,99696.53
2023-01-12T22:23:59.663Z,99689.72
2023-01-12T22:26:32.854Z,99690.50
2023-01-12T22:29:03.411Z,99683.84
2023-01-12T22:31:34.146Z,99697.53
2023-01-12T22:34:06.959Z,99685.78
2023-01-12T22:36:43.192Z,99686.69
2023-01-12T22:39:23.300Z,99677.38
2023-01-12T22:41:56.444Z,99680.91
2023-01-12T22:44:27.775Z,99696.13
2023-01-12T22:46:58.164Z,99686.06
2023-01-12T22:49:29.625Z,99692.72
2023-01-12T22:52:00.097Z,99692.72
2023-01-12T22:54:30.692Z,99685.78
2023-01-12T22:57:06.849Z,99690.97
2023-01-12T22:59:37.515Z,99667.13
2023-01-12T23:02:28.514Z,99684.16
2023-01-12T23:04:59.068Z,99638.78
2023-01-12T23:07:29.918Z,99675.41
2023-01-12T23:10:00.454Z,99691.72
2023-01-12T23:12:33.538Z,99675.72
2023-01-12T23:15:04.001Z,99678.25
2023-01-12T23:17:36.889Z,99669.97
2023-01-12T23:20:08.966Z,99666.66
2023-01-12T23:22:47.058Z,99672.69
2023-01-12T23:25:17.630Z,99667.56
2023-01-12T23:27:52.534Z,99675.22
2023-01-12T23:30:23.427Z,99666.03
2023-01-12T23:32:53.919Z,99662.78
2023-01-12T23:35:24.420Z,99662.88
2023-01-12T23:37:56.829Z,99657.09
2023-01-12T23:40:27.547Z,99658.59
2023-01-12T23:43:01.820Z,99656.84
2023-01-12T23:45:32.553Z,99657.25
2023-01-12T23:48:06.818Z,99654.63
2023-01-12T23:50:37.452Z,99657.16
2023-01-12T23:53:07.930Z,99661.28
2023-01-12T23:55:41.965Z,99652.97
2023-01-12T23:58:15.180Z,99612.47
